Time;durP1;ratioP1;P1;durP2;ratioP2;P2;SDS_P1;SDS_P2;PMS_P1;PMS_P2;Temp;Humidity;BMP_temperature;BMP_pressure;BME280_temperature;BME280_humidity;BME280_pressure;Samples;Min_cycle;Max_cycle;Signal;HPM_P1;HPM_P2
2022/11/16 00:00:49;;;;;;;;;;;;;;;;;;7367703;19;1858;-61
2022/11/16 00:03:17;;;;;;;;;;;;;;;;;;7366030;19;1328;-60
2022/11/16 00:05:45;;;;;;;;;;;;;;;;;;7368437;19;858;-61
2022/11/16 00:08:14;;;;;;;;;;;;;;;;;;7371841;19;2056;-61
2022/11/16 00:10:42;;;;;;;;;;;;;;;;;;7368503;19;873;-61
2022/11/16 00:13:10;;;;;;;;;;;;;;;;;;7365025;19;1311;-61
2022/11/16 00:15:38;;;;;;;;;;;;;;;;;;7369793;19;1852;-60
2022/11/16 00:18:06;;;;;;;;;;;;;;;;;;7367503;19;847;-58
2022/11/16 00:20:34;;;;;;;;;;;;;;;;;;7367854;19;1846;-60
2022/11/16 00:23:02;;;;;;;;;;;;;;;;;;7364910;19;1275;-60
2022/11/16 00:25:31;;;;;;;;;;;;;;;;;;7368354;19;803;-61
2022/11/16 00:27:59;;;;;;;;;;;;;;;;;;7367177;19;862;-61
2022/11/16 00:30:27;;;;;;;;;;;;;;;;;;7367018;19;843;-60
2022/11/16 00:32:55;;;;;;;;;;;;;;;;;;7365206;19;1340;-61
2022/11/16 00:35:23;;;;;;;;;;;;;;;;;;7367549;19;829;-61
2022/11/16 00:37:51;;;;;;;;;;;;;;;;;;7365356;19;904;-61
2022/11/16 00:40:19;;;;;;;;;;;;;;;;;;7365697;19;779;-61
2022/11/16 00:42:47;;;;;;;;;;;;;;;;;;7363229;19;1842;-58
2022/11/16 00:45:16;;;;;;;;;;;;;;;;;;7369038;19;1985;-61
2022/11/16 00:47:44;;;;;;;;;;;;;;;;;;7364638;19;874;-61
2022/11/16 00:50:12;;;;;;;;;;;;;;;;;;7368752;19;1820;-60
2022/11/16 00:52:40;;;;;;;;;;;;;;;;;;7365386;19;1360;-60
2022/11/16 00:55:08;;;;;;;;;;;;;;;;;;7366240;19;906;-60
2022/11/16 00:57:37;;;;;;;;;;;;;;;;;;7364878;19;877;-61
2022/11/16 01:00:05;;;;;;;;;;;;;;;;;;7365920;19;885;-62
2022/11/16 01:02:35;;;;;;;;;;;;;;;;;;7365872;19;1842;-61
2022/11/16 01:05:03;;;;;;;;;;;;;;;;;;7364651;19;1942;-61
2022/11/16 01:07:31;;;;;;;;;;;;;;;;;;7368997;19;2186;-60
2022/11/16 01:10:00;;;;;;;;;;;;;;;;;;7370308;19;1648;-59
2022/11/16 01:12:25;;;;;;;;;;;;;;;;;;7365591;19;1315;-61
2022/11/16 01:14:53;;;;;;;;;;;;;;;;;;7370705;19;1785;-60
2022/11/16 01:17:21;;;;;;;;;;;;;;;;;;7366898;19;839;-57
2022/11/16 01:19:49;;;;;;;;;;;;;;;;;;7365864;19;835;-59
2022/11/16 01:22:18;;;;;;;;;;;;;;;;;;7365150;19;1850;-60
2022/11/16 01:24:46;;;;;;;;;;;;;;;;;;7364925;19;936;-61
2022/11/16 01:27:14;;;;;;;;;;;;;;;;;;7365065;19;871;-60
2022/11/16 01:29:45;;;;;;;;;;;;;;;;;;7368918;19;1822;-60
2022/11/16 01:32:13;;;;;;;;;;;;;;;;;;7366883;19;1426;-61
2022/11/16 01:34:42;;;;;;;;;;;;;;;;;;7370815;19;786;-59
2022/11/16 01:37:22;;;;;;;;;;;;;;;;;;7371993;19;834;-61
2022/11/16 01:39:51;;;;;;;;;;;;;;;;;;7378701;19;735;-60
2022/11/16 01:42:19;;;;;;;;;;;;;;;;;;7369337;19;1845;-59
2022/11/16 01:44:48;;;;;;;;;;;;;;;;;;7365043;19;878;-59
2022/11/16 01:47:19;;;;;;;;;;;;;;;;;;7364799;19;797;-60
2022/11/16 01:49:47;;;;;;;;;;;;;;;;;;7365823;19;2059;-60
2022/11/16 01:52:17;;;;;;;;;;;;;;;;;;7362428;19;1302;-60
2022/11/16 01:54:45;;;;;;;;;;;;;;;;;;7363755;19;897;-60
2022/11/16 01:57:13;;;;;;;;;;;;;;;;;;7363588;19;878;-58
2022/11/16 01:59:46;;;;;;;;;;;;;;;;;;7369031;19;751;-59
2022/11/16 02:02:18;;;;;;;;;;;;;;;;;;7368837;19;1845;-60
2022/11/16 02:04:46;;;;;;;;;;;;;;;;;;7369440;19;816;-60
2022/11/16 02:07:20;;;;;;;;;;;;;;;;;;7369951;19;823;-60
2022/11/16 02:09:52;;;;;;;;;;;;;;;;;;7367751;19;1459;-60
2022/11/16 02:12:21;;;;;;;;;;;;;;;;;;7367995;19;2067;-60
2022/11/16 02:14:49;;;;;;;;;;;;;;;;;;7367490;19;822;-60
2022/11/16 02:17:18;;;;;;;;;;;;;;;;;;7368152;19;844;-59
2022/11/16 02:19:46;;;;;;;;;;;;;;;;;;7366543;19;799;-60
2022/11/16 02:22:15;;;;;;;;;;;;;;;;;;7366116;19;1866;-59
2022/11/16 02:24:43;;;;;;;;;;;;;;;;;;7368563;19;823;-57
2022/11/16 02:27:11;;;;;;;;;;;;;;;;;;7367253;19;854;-61
2022/11/16 02:29:39;;;;;;;;;;;;;;;;;;7366518;19;821;-59
2022/11/16 02:32:07;;;;;;;;;;;;;;;;;;7366802;19;1279;-59
2022/11/16 02:34:35;;;;;;;;;;;;;;;;;;7368539;19;874;-58
2022/11/16 02:37:04;;;;;;;;;;;;;;;;;;7371710;19;2018;-58
2022/11/16 02:39:32;;;;;;;;;;;;;;;;;;7367430;19;2064;-59
2022/11/16 02:42:00;;;;;;;;;;;;;;;;;;7365971;19;1845;-60
2022/11/16 02:44:30;;;;;;;;;;;;;;;;;;7367054;19;879;-58
2022/11/16 02:46:58;;;;;;;;;;;;;;;;;;7367679;19;828;-59
2022/11/16 02:49:26;;;;;;;;;;;;;;;;;;7368938;19;1858;-57
2022/11/16 02:51:54;;;;;;;;;;;;;;;;;;7365277;19;1282;-60
2022/11/16 02:54:23;;;;;;;;;;;;;;;;;;7366175;19;770;-60
2022/11/16 02:56:54;;;;;;;;;;;;;;;;;;7366552;19;766;-60
2022/11/16 02:59:25;;;;;;;;;;;;;;;;;;7365692;19;746;-59
2022/11/16 03:01:53;;;;;;;;;;;;;;;;;;7365697;19;1870;-60
2022/11/16 03:04:21;;;;;;;;;;;;;;;;;;7367230;19;897;-59
2022/11/16 03:06:50;;;;;;;;;;;;;;;;;;7366906;19;788;-59
2022/11/16 03:09:18;;;;;;;;;;;;;;;;;;7364118;19;2041;-60
2022/11/16 03:11:58;;;;;;;;;;;;;;;;;;7229089;19;2714288;-60
2022/11/16 03:14:27;;;;;;;;;;;;;;;;;;7368481;19;729;-60
2022/11/16 03:16:56;;;;;;;;;;;;;;;;;;7368263;19;804;-60
2022/11/16 03:19:24;;;;;;;;;;;;;;;;;;7367541;19;771;-60
2022/11/16 03:21:52;;;;;;;;;;;;;;;;;;7368367;19;1853;-60
2022/11/16 03:24:21;;;;;;;;;;;;;;;;;;7367600;19;974;-59
2022/11/16 03:26:49;;;;;;;;;;;;;;;;;;7368750;19;835;-58
2022/11/16 03:29:17;;;;;;;;;;;;;;;;;;7367212;19;1831;-61
2022/11/16 03:31:45;;;;;;;;;;;;;;;;;;7367817;19;1296;-57
2022/11/16 03:34:17;;;;;;;;;;;;;;;;;;7367322;19;838;-61
2022/11/16 03:36:45;;;;;;;;;;;;;;;;;;7368539;19;867;-61
2022/11/16 03:39:13;;;;;;;;;;;;;;;;;;7370037;19;1893;-59
2022/11/16 03:41:41;;;;;;;;;;;;;;;;;;7366055;19;1842;-60
2022/11/16 03:44:09;;;;;;;;;;;;;;;;;;7367308;19;807;-61
2022/11/16 03:46:37;;;;;;;;;;;;;;;;;;7368670;19;842;-59
2022/11/16 03:49:05;;;;;;;;;;;;;;;;;;7366210;19;823;-61
2022/11/16 03:51:36;;;;;;;;;;;;;;;;;;7366172;19;1369;-60
2022/11/16 03:54:05;;;;;;;;;;;;;;;;;;7368146;19;1035;-61
2022/11/16 03:56:34;;;;;;;;;;;;;;;;;;7366435;19;888;-60
2022/11/16 03:59:03;;;;;;;;;;;;;;;;;;7366329;19;882;-59
2022/11/16 04:01:32;;;;;;;;;;;;;;;;;;7365869;19;1279;-62
2022/11/16 04:04:01;;;;;;;;;;;;;;;;;;7366736;19;767;-59
2022/11/16 04:25:17;;;;;;;;;;;;;;;;;;7367878;19;870;-61
2022/11/16 04:37:47;;;;;;;;;;;;;;;;;;7366056;19;797;-61
2022/11/16 04:38:36;;;;;;;;;;;;;;;;;;7367116;19;1817;-61
2022/11/16 04:42:12;;;;;;;;;;;;;;;;;;7364896;19;1357;-61
2022/11/16 04:43:50;;;;;;;;;;;;;;;;;;7362508;19;1845;-61
2022/11/16 04:48:59;;;;;;;;;;;;;;;;;;7368556;19;1985;-62
2022/11/16 04:51:27;;;;;;;;;;;;;;;;;;7364610;19;1303;-61
2022/11/16 04:53:55;;;;;;;;;;;;;;;;;;7365427;19;877;-60
2022/11/16 04:56:24;;;;;;;;;;;;;;;;;;7364786;19;862;-60
2022/11/16 04:58:52;;;;;;;;;;;;;;;;;;7364573;19;818;-60
2022/11/16 05:02:06;;;;;;;;;;;;;;;;;;7364763;19;1234;-60
2022/11/16 05:04:09;;;;;;;;;;;;;;;;;;7365053;19;1098;-59
2022/11/16 05:06:37;;;;;;;;;;;;;;;;;;7367664;19;1847;-59
2022/11/16 05:09:05;;;;;;;;;;;;;;;;;;7365380;19;856;-60
2022/11/16 05:11:34;;;;;;;;;;;;;;;;;;7363830;19;1381;-60
2022/11/16 05:14:02;;;;;;;;;;;;;;;;;;7365188;19;858;-60
2022/11/16 05:16:30;;;;;;;;;;;;;;;;;;7364296;19;840;-60
2022/11/16 05:21:39;;;;;;;;;;;;;;;;;;7363821;19;1338;-59
2022/11/16 05:26:51;;;;;;;;;;;;;;;;;;7363660;19;1183;-61
2022/11/16 05:29:19;;;;;;;;;;;;;;;;;;7364917;19;812;-60
2022/11/16 05:31:47;;;;;;;;;;;;;;;;;;7363614;19;1392;-59
2022/11/16 05:34:16;;;;;;;;;;;;;;;;;;7365492;19;2077;-60
2022/11/16 05:36:44;;;;;;;;;;;;;;;;;;7364727;19;838;-59
2022/11/16 05:39:12;;;;;;;;;;;;;;;;;;7363328;19;810;-62
2022/11/16 05:41:42;;;;;;;;;;;;;;;;;;7363117;19;1243;-60
2022/11/16 05:44:10;;;;;;;;;;;;;;;;;;7362599;19;1853;-61
2022/11/16 05:46:38;;;;;;;;;;;;;;;;;;7364550;19;888;-60
2022/11/16 05:49:06;;;;;;;;;;;;;;;;;;7363128;19;862;-61
2022/11/16 05:51:36;;;;;;;;;;;;;;;;;;7363210;19;1325;-61
2022/11/16 05:54:04;;;;;;;;;;;;;;;;;;7363900;19;958;-62
2022/11/16 05:56:32;;;;;;;;;;;;;;;;;;7363442;19;807;-61
2022/11/16 05:59:01;;;;;;;;;;;;;;;;;;7362759;19;782;-61
2022/11/16 06:01:29;;;;;;;;;;;;;;;;;;7363080;19;1295;-62
2022/11/16 06:03:57;;;;;;;;;;;;;;;;;;7361998;19;2048;-61
2022/11/16 06:06:25;;;;;;;;;;;;;;;;;;7363324;19;1004;-61
2022/11/16 06:08:53;;;;;;;;;;;;;;;;;;7366636;19;1532;-62
2022/11/16 06:11:25;;;;;;;;;;;;;;;;;;7363359;19;1330;-62
2022/11/16 06:13:54;;;;;;;;;;;;;;;;;;7362397;19;886;-62
2022/11/16 06:16:22;;;;;;;;;;;;;;;;;;7363426;19;756;-62
2022/11/16 06:18:50;;;;;;;;;;;;;;;;;;7362247;19;992;-60
2022/11/16 06:21:18;;;;;;;;;;;;;;;;;;7364651;19;1843;-58
2022/11/16 06:23:47;;;;;;;;;;;;;;;;;;7360947;19;1862;-60
2022/11/16 06:26:15;;;;;;;;;;;;;;;;;;7364642;19;937;-60
2022/11/16 06:28:43;;;;;;;;;;;;;;;;;;7362422;19;866;-61
2022/11/16 06:31:11;;;;;;;;;;;;;;;;;;7364519;19;1270;-60
2022/11/16 06:33:42;;;;;;;;;;;;;;;;;;7366675;19;1571;-61
2022/11/16 06:36:17;;;;;;;;;;;;;;;;;;7362918;19;814;-62
2022/11/16 06:38:45;;;;;;;;;;;;;;;;;;7363212;19;783;-60
2022/11/16 06:41:14;;;;;;;;;;;;;;;;;;7362352;19;1365;-63
2022/11/16 06:43:46;;;;;;;;;;;;;;;;;;7362019;19;1862;-63
2022/11/16 06:46:16;;;;;;;;;;;;;;;;;;7368836;19;808;-63
2022/11/16 06:48:44;;;;;;;;;;;;;;;;;;7368227;19;763;-62
2022/11/16 06:51:14;;;;;;;;;;;;;;;;;;7370512;19;1282;-63
2022/11/16 06:53:42;;;;;;;;;;;;;;;;;;7368258;19;798;-62
2022/11/16 06:56:11;;;;;;;;;;;;;;;;;;7370169;19;826;-61
2022/11/16 06:58:43;;;;;;;;;;;;;;;;;;7368780;19;735;-63
2022/11/16 07:01:14;;;;;;;;;;;;;;;;;;7369338;19;1279;-63
2022/11/16 07:03:44;;;;;;;;;;;;;;;;;;7371560;19;2018;-61
2022/11/16 07:06:13;;;;;;;;;;;;;;;;;;7369248;19;741;-62
2022/11/16 07:08:43;;;;;;;;;;;;;;;;;;7367185;19;721;-63
2022/11/16 07:11:12;;;;;;;;;;;;;;;;;;7367929;19;1287;-63
2022/11/16 07:13:41;;;;;;;;;;;;;;;;;;7369208;19;860;-62
2022/11/16 07:16:10;;;;;;;;;;;;;;;;;;7368105;19;823;-61
2022/11/16 07:18:41;;;;;;;;;;;;;;;;;;7366742;19;758;-64
2022/11/16 07:21:09;;;;;;;;;;;;;;;;;;7369708;19;1247;-63
2022/11/16 07:23:37;;;;;;;;;;;;;;;;;;7366238;19;1871;-65
2022/11/16 07:26:06;;;;;;;;;;;;;;;;;;7368357;19;794;-63
2022/11/16 07:28:49;;;;;;;;;;;;;;;;;;7366739;19;810;-63
2022/11/16 07:31:21;;;;;;;;;;;;;;;;;;7370754;19;1847;-61
2022/11/16 07:34:06;;;;;;;;;;;;;;;;;;7367650;19;739;-63
2022/11/16 07:36:51;;;;;;;;;;;;;;;;;;7368175;19;775;-64
2022/11/16 07:39:20;;;;;;;;;;;;;;;;;;7367455;19;787;-65
2022/11/16 07:41:51;;;;;;;;;;;;;;;;;;7367390;19;1392;-64
2022/11/16 07:44:27;;;;;;;;;;;;;;;;;;7365505;19;1854;-63
2022/11/16 07:47:07;;;;;;;;;;;;;;;;;;7367845;19;936;-64
2022/11/16 07:49:37;;;;;;;;;;;;;;;;;;7367296;19;771;-64
2022/11/16 07:52:15;;;;;;;;;;;;;;;;;;7366784;19;1404;-64
2022/11/16 07:55:07;;;;;;;;;;;;;;;;;;7366480;19;1922;-63
2022/11/16 07:57:35;;;;;;;;;;;;;;;;;;7365725;19;921;-64
2022/11/16 08:00:07;;;;;;;;;;;;;;;;;;7369187;19;1853;-63
2022/11/16 08:02:53;;;;;;;;;;;;;;;;;;7367040;19;1853;-65
2022/11/16 08:05:22;;;;;;;;;;;;;;;;;;7366683;19;782;-63
2022/11/16 08:07:51;;;;;;;;;;;;;;;;;;7366687;19;1039;-64
2022/11/16 08:10:23;;;;;;;;;;;;;;;;;;7367901;19;826;-65
2022/11/16 08:12:52;;;;;;;;;;;;;;;;;;7368925;19;1369;-65
2022/11/16 08:15:21;;;;;;;;;;;;;;;;;;7372442;19;843;-64
2022/11/16 08:17:49;;;;;;;;;;;;;;;;;;7369515;19;806;-65
2022/11/16 08:20:18;;;;;;;;;;;;;;;;;;7370998;19;899;-64
2022/11/16 08:22:48;;;;;;;;;;;;;;;;;;7372213;19;1810;-62
2022/11/16 08:25:16;;;;;;;;;;;;;;;;;;7370961;19;765;-64
2022/11/16 08:27:46;;;;;;;;;;;;;;;;;;7366556;19;1867;-64
2022/11/16 08:30:14;;;;;;;;;;;;;;;;;;7367498;19;894;-62
2022/11/16 08:32:44;;;;;;;;;;;;;;;;;;7369065;19;1852;-65
2022/11/16 08:35:12;;;;;;;;;;;;;;;;;;7367335;19;834;-65
2022/11/16 08:37:40;;;;;;;;;;;;;;;;;;7366432;19;759;-66
2022/11/16 08:40:09;;;;;;;;;;;;;;;;;;7366888;19;963;-65
2022/11/16 08:42:39;;;;;;;;;;;;;;;;;;7365605;19;1944;-65
2022/11/16 08:45:08;;;;;;;;;;;;;;;;;;7366729;19;1946;-65
2022/11/16 08:47:36;;;;;;;;;;;;;;;;;;7368530;19;1187;-65
2022/11/16 08:50:05;;;;;;;;;;;;;;;;;;7368891;19;1694;-64
2022/11/16 08:52:33;;;;;;;;;;;;;;;;;;7368340;19;1373;-62
2022/11/16 08:55:02;;;;;;;;;;;;;;;;;;7366257;19;854;-65
2022/11/16 08:57:30;;;;;;;;;;;;;;;;;;7370469;19;2029;-62
2022/11/16 09:00:01;;;;;;;;;;;;;;;;;;7369270;19;819;-63
2022/11/16 09:02:29;;;;;;;;;;;;;;;;;;7369568;19;1281;-64
2022/11/16 09:04:57;;;;;;;;;;;;;;;;;;7369808;19;1842;-65
2022/11/16 09:07:25;;;;;;;;;;;;;;;;;;7370219;19;796;-64
2022/11/16 09:09:54;;;;;;;;;;;;;;;;;;7370587;19;828;-65
2022/11/16 09:12:22;;;;;;;;;;;;;;;;;;7367409;19;1313;-64
2022/11/16 09:14:50;;;;;;;;;;;;;;;;;;7369186;19;879;-65
2022/11/16 09:17:18;;;;;;;;;;;;;;;;;;7370106;19;797;-64
2022/11/16 09:19:46;;;;;;;;;;;;;;;;;;7368285;19;803;-64
2022/11/16 09:22:14;;;;;;;;;;;;;;;;;;7367832;19;1347;-66
2022/11/16 09:24:42;;;;;;;;;;;;;;;;;;7365186;19;1849;-66
2022/11/16 09:27:11;;;;;;;;;;;;;;;;;;7372822;19;1797;-67
2022/11/16 09:29:39;;;;;;;;;;;;;;;;;;7364562;19;846;-65
2022/11/16 09:32:07;;;;;;;;;;;;;;;;;;7365391;19;1318;-65
2022/11/16 09:34:35;;;;;;;;;;;;;;;;;;7367526;19;740;-66
2022/11/16 09:37:03;;;;;;;;;;;;;;;;;;7367318;19;823;-64
2022/11/16 09:39:33;;;;;;;;;;;;;;;;;;7366013;19;789;-64
2022/11/16 09:42:02;;;;;;;;;;;;;;;;;;7364722;19;1307;-64
2022/11/16 09:44:30;;;;;;;;;;;;;;;;;;7366964;19;2007;-65
2022/11/16 09:46:58;;;;;;;;;;;;;;;;;;7366330;19;812;-64
2022/11/16 09:49:26;;;;;;;;;;;;;;;;;;7365331;19;784;-66
2022/11/16 09:51:54;;;;;;;;;;;;;;;;;;7365098;19;1263;-65
2022/11/16 09:54:22;;;;;;;;;;;;;;;;;;7366507;19;923;-63
2022/11/16 09:56:50;;;;;;;;;;;;;;;;;;7370034;19;1981;-62
2022/11/16 09:59:19;;;;;;;;;;;;;;;;;;7365019;19;869;-63
2022/11/16 10:01:47;;;;;;;;;;;;;;;;;;7364627;19;1283;-64
2022/11/16 10:04:15;;;;;;;;;;;;;;;;;;7364305;19;1855;-65
2022/11/16 10:06:43;;;;;;;;;;;;;;;;;;7365595;19;795;-64
2022/11/16 10:09:12;;;;;;;;;;;;;;;;;;7364632;19;861;-65
2022/11/16 10:11:40;;;;;;;;;;;;;;;;;;7365275;19;1263;-66
2022/11/16 10:14:08;;;;;;;;;;;;;;;;;;7367645;19;1293;-65
2022/11/16 10:16:36;;;;;;;;;;;;;;;;;;7365510;19;806;-65
2022/11/16 10:19:04;;;;;;;;;;;;;;;;;;7366701;19;873;-64
2022/11/16 10:21:33;;;;;;;;;;;;;;;;;;7371164;19;1338;-64
2022/11/16 10:24:02;;;;;;;;;;;;;;;;;;7373829;19;1860;-63
2022/11/16 10:26:30;;;;;;;;;;;;;;;;;;7373143;19;796;-64
2022/11/16 10:28:58;;;;;;;;;;;;;;;;;;7371928;19;873;-65
2022/11/16 10:31:27;;;;;;;;;;;;;;;;;;7371965;19;1333;-66
2022/11/16 10:33:55;;;;;;;;;;;;;;;;;;7371885;19;816;-61
2022/11/16 10:36:25;;;;;;;;;;;;;;;;;;7371832;19;894;-63
2022/11/16 10:38:54;;;;;;;;;;;;;;;;;;7373904;19;1840;-64
2022/11/16 10:41:22;;;;;;;;;;;;;;;;;;7371715;19;1279;-65
2022/11/16 10:43:50;;;;;;;;;;;;;;;;;;7371271;19;1866;-65
2022/11/16 10:46:18;;;;;;;;;;;;;;;;;;7372183;19;802;-64
2022/11/16 10:48:47;;;;;;;;;;;;;;;;;;7370398;19;796;-64
2022/11/16 10:51:15;;;;;;;;;;;;;;;;;;7371827;19;1263;-66
2022/11/16 10:53:43;;;;;;;;;;;;;;;;;;7373557;19;1578;-66
2022/11/16 10:56:12;;;;;;;;;;;;;;;;;;7370945;19;795;-66
2022/11/16 10:58:40;;;;;;;;;;;;;;;;;;7370071;19;856;-65
2022/11/16 11:01:08;;;;;;;;;;;;;;;;;;7371473;19;1367;-65
2022/11/16 11:03:36;;;;;;;;;;;;;;;;;;7369338;19;1837;-66
2022/11/16 11:06:05;;;;;;;;;;;;;;;;;;7371747;19;811;-65
2022/11/16 11:08:33;;;;;;;;;;;;;;;;;;7370907;19;925;-66
2022/11/16 11:11:02;;;;;;;;;;;;;;;;;;7370837;19;814;-65
2022/11/16 11:13:27;;;;;;;;;;;;;;;;;;7368591;19;1263;-66
2022/11/16 11:15:55;;;;;;;;;;;;;;;;;;7371068;19;851;-66
2022/11/16 11:18:23;;;;;;;;;;;;;;;;;;7368497;19;866;-66
2022/11/16 11:20:52;;;;;;;;;;;;;;;;;;7371056;19;724;-65
2022/11/16 11:23:20;;;;;;;;;;;;;;;;;;7372142;19;2029;-66
2022/11/16 11:25:48;;;;;;;;;;;;;;;;;;7368451;19;1845;-65
2022/11/16 11:28:16;;;;;;;;;;;;;;;;;;7369394;19;792;-67
2022/11/16 11:30:44;;;;;;;;;;;;;;;;;;7369942;19;810;-66
2022/11/16 11:33:12;;;;;;;;;;;;;;;;;;7366868;19;1302;-65
2022/11/16 11:35:40;;;;;;;;;;;;;;;;;;7371570;19;905;-66
2022/11/16 11:38:08;;;;;;;;;;;;;;;;;;7368815;19;785;-64
2022/11/16 11:40:37;;;;;;;;;;;;;;;;;;7370559;19;807;-67
2022/11/16 11:43:05;;;;;;;;;;;;;;;;;;7367824;19;1271;-61
2022/11/16 11:45:33;;;;;;;;;;;;;;;;;;7369309;19;1850;-64
2022/11/16 11:48:01;;;;;;;;;;;;;;;;;;7369880;19;834;-65
2022/11/16 11:50:29;;;;;;;;;;;;;;;;;;7369864;19;859;-65
2022/11/16 11:52:57;;;;;;;;;;;;;;;;;;7370961;19;1832;-65
2022/11/16 11:55:26;;;;;;;;;;;;;;;;;;7369940;19;1103;-64
2022/11/16 11:57:54;;;;;;;;;;;;;;;;;;7369241;19;792;-63
2022/11/16 12:00:22;;;;;;;;;;;;;;;;;;7370038;19;859;-63
2022/11/16 12:02:50;;;;;;;;;;;;;;;;;;7367097;19;1271;-61
2022/11/16 12:05:19;;;;;;;;;;;;;;;;;;7367623;19;1837;-61
2022/11/16 12:07:47;;;;;;;;;;;;;;;;;;7368728;19;751;-62
2022/11/16 12:10:15;;;;;;;;;;;;;;;;;;7368989;19;836;-63
2022/11/16 12:12:43;;;;;;;;;;;;;;;;;;7366751;19;1322;-62
2022/11/16 12:15:11;;;;;;;;;;;;;;;;;;7367850;19;779;-64
2022/11/16 12:17:39;;;;;;;;;;;;;;;;;;7368145;19;994;-63
2022/11/16 12:20:08;;;;;;;;;;;;;;;;;;7369628;19;1822;-63
2022/11/16 12:22:36;;;;;;;;;;;;;;;;;;7367462;19;1282;-64
2022/11/16 12:25:04;;;;;;;;;;;;;;;;;;7365865;19;1855;-65
2022/11/16 12:27:32;;;;;;;;;;;;;;;;;;7370137;19;1796;-66
2022/11/16 12:30:00;;;;;;;;;;;;;;;;;;7368274;19;1666;-65
2022/11/16 12:32:28;;;;;;;;;;;;;;;;;;7366712;19;1330;-65
2022/11/16 12:34:56;;;;;;;;;;;;;;;;;;7369156;19;824;-66
2022/11/16 12:37:24;;;;;;;;;;;;;;;;;;7369617;19;1614;-65
2022/11/16 12:39:53;;;;;;;;;;;;;;;;;;7367752;19;828;-66
2022/11/16 12:42:21;;;;;;;;;;;;;;;;;;7364534;19;1247;-65
2022/11/16 12:44:49;;;;;;;;;;;;;;;;;;7366586;19;1849;-64
2022/11/16 12:47:17;;;;;;;;;;;;;;;;;;7368530;19;804;-65
2022/11/16 12:49:45;;;;;;;;;;;;;;;;;;7365228;19;800;-66
2022/11/16 12:52:13;;;;;;;;;;;;;;;;;;7369470;19;1465;-63
2022/11/16 12:54:42;;;;;;;;;;;;;;;;;;7369242;19;779;-64
2022/11/16 12:57:10;;;;;;;;;;;;;;;;;;7372106;19;1773;-64
2022/11/16 12:59:41;;;;;;;;;;;;;;;;;;7370765;19;2032;-63
2022/11/16 13:02:09;;;;;;;;;;;;;;;;;;7367084;19;1310;-64
2022/11/16 13:04:39;;;;;;;;;;;;;;;;;;7368948;19;1837;-64
2022/11/16 13:07:07;;;;;;;;;;;;;;;;;;7369940;19;776;-64
2022/11/16 13:09:36;;;;;;;;;;;;;;;;;;7370624;19;836;-64
2022/11/16 13:12:04;;;;;;;;;;;;;;;;;;7371902;19;1368;-63
2022/11/16 13:14:32;;;;;;;;;;;;;;;;;;7372960;19;861;-63
2022/11/16 13:17:00;;;;;;;;;;;;;;;;;;7373610;19;873;-64
2022/11/16 13:19:29;;;;;;;;;;;;;;;;;;7370821;19;799;-62
2022/11/16 13:21:58;;;;;;;;;;;;;;;;;;7366008;19;1274;-63
2022/11/16 13:24:26;;;;;;;;;;;;;;;;;;7368128;19;2044;-63
2022/11/16 13:26:54;;;;;;;;;;;;;;;;;;7367404;19;886;-63
2022/11/16 13:29:23;;;;;;;;;;;;;;;;;;7366849;19;849;-60
2022/11/16 13:31:51;;;;;;;;;;;;;;;;;;7366936;19;1352;-63
2022/11/16 13:34:19;;;;;;;;;;;;;;;;;;7366293;19;820;-62
2022/11/16 13:36:47;;;;;;;;;;;;;;;;;;7367481;19;891;-64
2022/11/16 13:39:15;;;;;;;;;;;;;;;;;;7366153;19;800;-63
2022/11/16 13:41:43;;;;;;;;;;;;;;;;;;7365690;19;1282;-63
2022/11/16 13:44:11;;;;;;;;;;;;;;;;;;7366621;19;807;-64
2022/11/16 13:46:40;;;;;;;;;;;;;;;;;;7363078;19;1845;-66
2022/11/16 13:49:08;;;;;;;;;;;;;;;;;;7365077;19;862;-66
2022/11/16 13:51:36;;;;;;;;;;;;;;;;;;7366752;19;2068;-64
2022/11/16 13:54:04;;;;;;;;;;;;;;;;;;7369850;19;831;-65
2022/11/16 13:56:32;;;;;;;;;;;;;;;;;;7372305;19;819;-64
2022/11/16 13:59:00;;;;;;;;;;;;;;;;;;7372086;19;805;-64
2022/11/16 14:01:28;;;;;;;;;;;;;;;;;;7372111;19;1274;-65
2022/11/16 14:03:57;;;;;;;;;;;;;;;;;;7374325;19;953;-63
2022/11/16 14:06:25;;;;;;;;;;;;;;;;;;7373742;19;1854;-61
2022/11/16 14:08:53;;;;;;;;;;;;;;;;;;7371339;19;896;-63
2022/11/16 14:11:21;;;;;;;;;;;;;;;;;;7372044;19;1338;-62
2022/11/16 14:13:49;;;;;;;;;;;;;;;;;;7370923;19;787;-61
2022/11/16 14:16:18;;;;;;;;;;;;;;;;;;7372078;19;946;-62
2022/11/16 14:18:46;;;;;;;;;;;;;;;;;;7371463;19;811;-63
2022/11/16 14:21:14;;;;;;;;;;;;;;;;;;7375208;19;1907;-63
2022/11/16 14:23:42;;;;;;;;;;;;;;;;;;7371980;19;830;-63
2022/11/16 14:26:10;;;;;;;;;;;;;;;;;;7370055;19;1845;-63
2022/11/16 14:28:38;;;;;;;;;;;;;;;;;;7371369;19;2003;-63
2022/11/16 14:31:07;;;;;;;;;;;;;;;;;;7371330;19;821;-63
2022/11/16 14:33:35;;;;;;;;;;;;;;;;;;7371154;19;898;-63
2022/11/16 14:36:03;;;;;;;;;;;;;;;;;;7371645;19;847;-62
2022/11/16 14:38:31;;;;;;;;;;;;;;;;;;7370346;19;787;-63
2022/11/16 14:40:59;;;;;;;;;;;;;;;;;;7370616;19;835;-63
2022/11/16 14:43:28;;;;;;;;;;;;;;;;;;7368236;19;1282;-63
2022/11/16 14:45:57;;;;;;;;;;;;;;;;;;7368915;19;1854;-63
2022/11/16 14:48:25;;;;;;;;;;;;;;;;;;7370194;19;796;-63
2022/11/16 14:50:53;;;;;;;;;;;;;;;;;;7375179;19;1577;-63
2022/11/16 14:53:21;;;;;;;;;;;;;;;;;;7368780;19;1263;-63
2022/11/16 14:55:49;;;;;;;;;;;;;;;;;;7370471;19;842;-63
2022/11/16 14:58:18;;;;;;;;;;;;;;;;;;7370104;19;851;-62
2022/11/16 15:00:46;;;;;;;;;;;;;;;;;;7370965;19;815;-63
2022/11/16 15:03:14;;;;;;;;;;;;;;;;;;7368815;19;1263;-63
2022/11/16 15:05:42;;;;;;;;;;;;;;;;;;7367714;19;1841;-63
2022/11/16 15:08:10;;;;;;;;;;;;;;;;;;7369295;19;795;-63
2022/11/16 15:10:38;;;;;;;;;;;;;;;;;;7370263;19;815;-63
2022/11/16 15:13:06;;;;;;;;;;;;;;;;;;7367769;19;1264;-63
2022/11/16 15:15:34;;;;;;;;;;;;;;;;;;7369990;19;816;-63
2022/11/16 15:18:03;;;;;;;;;;;;;;;;;;7371431;19;1638;-62
2022/11/16 15:20:32;;;;;;;;;;;;;;;;;;7370349;19;786;-63
2022/11/16 15:23:00;;;;;;;;;;;;;;;;;;7368422;19;1292;-61
2022/11/16 15:25:28;;;;;;;;;;;;;;;;;;7368933;19;1840;-63
2022/11/16 15:27:56;;;;;;;;;;;;;;;;;;7369980;19;1452;-62
2022/11/16 15:30:24;;;;;;;;;;;;;;;;;;7369804;19;835;-63
2022/11/16 15:32:52;;;;;;;;;;;;;;;;;;7371261;19;1286;-63
2022/11/16 15:35:21;;;;;;;;;;;;;;;;;;7373467;19;850;-62
2022/11/16 15:37:49;;;;;;;;;;;;;;;;;;7373019;19;806;-63
2022/11/16 15:40:17;;;;;;;;;;;;;;;;;;7375769;19;821;-64
2022/11/16 15:42:45;;;;;;;;;;;;;;;;;;7373101;19;2128;-62
2022/11/16 15:45:13;;;;;;;;;;;;;;;;;;7373444;19;1845;-64
2022/11/16 15:47:41;;;;;;;;;;;;;;;;;;7372070;19;1587;-63
2022/11/16 15:50:10;;;;;;;;;;;;;;;;;;7369975;19;895;-63
2022/11/16 15:52:38;;;;;;;;;;;;;;;;;;7368234;19;1271;-61
2022/11/16 15:55:06;;;;;;;;;;;;;;;;;;7370250;19;974;-64
2022/11/16 15:57:34;;;;;;;;;;;;;;;;;;7369287;19;855;-65
2022/11/16 16:00:02;;;;;;;;;;;;;;;;;;7369123;19;707;-65
2022/11/16 16:02:32;;;;;;;;;;;;;;;;;;7367216;19;1255;-65
2022/11/16 16:05:00;;;;;;;;;;;;;;;;;;7368609;19;1865;-64
2022/11/16 16:07:29;;;;;;;;;;;;;;;;;;7368421;19;748;-65
2022/11/16 16:09:57;;;;;;;;;;;;;;;;;;7367126;19;851;-64
2022/11/16 16:12:25;;;;;;;;;;;;;;;;;;7366947;19;1828;-64
2022/11/16 16:14:53;;;;;;;;;;;;;;;;;;7373268;19;1575;-63
2022/11/16 16:17:21;;;;;;;;;;;;;;;;;;7365432;19;839;-64
2022/11/16 16:19:49;;;;;;;;;;;;;;;;;;7366916;19;830;-63
2022/11/16 16:22:17;;;;;;;;;;;;;;;;;;7365542;19;1278;-64
2022/11/16 16:24:45;;;;;;;;;;;;;;;;;;7367556;19;1444;-64
2022/11/16 16:27:14;;;;;;;;;;;;;;;;;;7364271;19;1810;-65
2022/11/16 16:29:42;;;;;;;;;;;;;;;;;;7365832;19;863;-63
2022/11/16 16:32:10;;;;;;;;;;;;;;;;;;7367342;19;1704;-64
2022/11/16 16:34:38;;;;;;;;;;;;;;;;;;7370586;19;1818;-64
2022/11/16 16:37:06;;;;;;;;;;;;;;;;;;7367568;19;803;-64
2022/11/16 16:39:35;;;;;;;;;;;;;;;;;;7367210;19;871;-61
2022/11/16 16:42:03;;;;;;;;;;;;;;;;;;7370010;19;2014;-61
2022/11/16 16:44:31;;;;;;;;;;;;;;;;;;7369184;19;1502;-63
2022/11/16 16:46:59;;;;;;;;;;;;;;;;;;7366045;19;1859;-63
2022/11/16 16:49:27;;;;;;;;;;;;;;;;;;7366871;19;823;-62
2022/11/16 16:51:55;;;;;;;;;;;;;;;;;;7367082;19;1281;-61
2022/11/16 16:54:24;;;;;;;;;;;;;;;;;;7367537;19;800;-62
2022/11/16 16:56:52;;;;;;;;;;;;;;;;;;7367358;19;812;-62
2022/11/16 16:59:20;;;;;;;;;;;;;;;;;;7365928;19;759;-64
2022/11/16 17:01:48;;;;;;;;;;;;;;;;;;7364581;19;1314;-62
2022/11/16 17:04:16;;;;;;;;;;;;;;;;;;7366720;19;839;-63
2022/11/16 17:06:44;;;;;;;;;;;;;;;;;;7364515;19;1838;-63
2022/11/16 17:09:12;;;;;;;;;;;;;;;;;;7367599;19;1830;-65
2022/11/16 17:11:41;;;;;;;;;;;;;;;;;;7368249;19;1768;-63
2022/11/16 17:14:09;;;;;;;;;;;;;;;;;;7367754;19;803;-64
2022/11/16 17:16:37;;;;;;;;;;;;;;;;;;7366748;19;807;-63
2022/11/16 17:19:05;;;;;;;;;;;;;;;;;;7365949;19;1380;-61
2022/11/16 17:21:33;;;;;;;;;;;;;;;;;;7366535;19;1326;-62
2022/11/16 17:24:01;;;;;;;;;;;;;;;;;;7366549;19;733;-62
2022/11/16 17:26:30;;;;;;;;;;;;;;;;;;7364332;19;1833;-61
2022/11/16 17:28:58;;;;;;;;;;;;;;;;;;7362370;19;874;-63
2022/11/16 17:31:26;;;;;;;;;;;;;;;;;;7365611;19;1318;-62
2022/11/16 17:33:56;;;;;;;;;;;;;;;;;;7365678;19;874;-63
2022/11/16 17:36:24;;;;;;;;;;;;;;;;;;7366750;19;887;-62
2022/11/16 17:38:52;;;;;;;;;;;;;;;;;;7364874;19;811;-63
2022/11/16 17:41:20;;;;;;;;;;;;;;;;;;7366657;19;1283;-63
2022/11/16 17:43:48;;;;;;;;;;;;;;;;;;7365945;19;800;-62
2022/11/16 17:46:16;;;;;;;;;;;;;;;;;;7365225;19;1863;-62
2022/11/16 17:48:45;;;;;;;;;;;;;;;;;;7365588;19;871;-60
2022/11/16 17:51:13;;;;;;;;;;;;;;;;;;7366910;19;1283;-60
2022/11/16 17:53:43;;;;;;;;;;;;;;;;;;7366362;19;787;-60
2022/11/16 17:56:11;;;;;;;;;;;;;;;;;;7366365;19;882;-63
2022/11/16 17:58:39;;;;;;;;;;;;;;;;;;7364418;19;824;-62